Rachel, Nevada Weather observations

Data are for observation ending at time listed.
 Day   Time    Ave.   Ave.  Ave.  Vector   Max.   Stn.    Total    Solar   Ave.  
  of    of     Air    Rel.  Wind   Wind    Wind   Baro.  Precip.   Rad.    Soil  
Year   Day     Temp.  Hum.  Speed  Dir.    Gust   Pres.                    Temp. 
2016   (PST)    F      %     mph   deg.    mph     mb.     in.     W/m2     F   
------------------------------------------------------------------------------
 270    5:30   50.4    33    3.8   257      6.6   859.1    0.00       0    59.5
 270    5:40   49.8    33    4.4   271      6.1   859.0    0.00       3    59.4
 270    5:50   49.7    33    1.9   250      4.0   859.1    0.00       4    59.1
 270    6:00   49.3    34    2.6   216      6.6   859.1    0.00       8    58.9
 270    6:10   50.1    33    3.1   225      6.1   859.2    0.00       9    58.8
 270    6:20   50.8    32    2.5   168      4.4   859.3    0.00      65    58.9
 270    6:30   51.7    30    2.5   155      3.7   859.4    0.00     102    59.4
 270    6:40   53.3    29    1.9   209      3.4   859.6    0.00     127    60.2
 270    6:50   54.5    28    1.2   288      2.4   859.8    0.00     153    61.2
 270    7:00   56.0    27    1.6   276      3.7   860.2    0.00     179    62.3
 270    7:10   57.7    26    1.6   329      2.9   860.3    0.00     205    63.1
 270    7:20   58.4    26    3.7   266      6.0   860.6    0.00     231    63.5
 270    7:30   58.2    26    2.4   279      4.3   860.7    0.00     257    64.3
 270    7:40   58.4    26    2.6   296      4.3   860.7    0.00     283    65.1
 270    7:50   58.9    27    4.3   315      5.8   860.8    0.00     307    65.5
 270    8:00   60.0    26    4.5   336      6.5   860.9    0.00     332    65.9
 270    8:10   61.0    25    4.9     9      7.6   861.0    0.00     356    66.3
 270    8:20   61.7    24    5.4     0      7.6   861.0    0.00     378    66.6
 270    8:30   62.4    24    7.0    16      9.6   861.0    0.00     400    66.8
 270    8:40   63.1    23    7.5     3      9.3   861.0    0.00     420    67.2
 270    8:50   64.3    22    7.7    12     10.4   861.0    0.00     439    67.3
 270    9:00   66.8    21    8.3    20     10.9   860.9    0.00     456    67.3
 270    9:10   68.5    20    7.9    23     10.9   861.1    0.00     472    67.5
 270    9:20   69.8    19    8.6    22     12.9   861.1    0.00     487    67.8
 270    9:30   70.8    19    8.3     9     13.6   861.2    0.00     502    68.1
 270    9:40   72.4    18    7.6    52     19.5   861.2    0.00     514    68.3
 270    9:50   73.5    17   12.7    66     18.6   861.4    0.00     527    68.7
 270   10:00   73.6    17   13.9    72     19.6   861.5    0.00     540    69.0
 270   10:10   73.7    17   13.6    76     19.7   861.4    0.00     551    69.2
 270   10:20   74.2    17   13.4    68     20.1   861.3    0.00     560    69.4
 270   10:30   74.3    17   11.8    74     17.5   861.0    0.00     571    69.6
 270   10:40   74.3    17    7.4    79     13.9   861.1    0.00     578    69.8
 270   10:50   75.3    16    7.5    62     14.3   861.1    0.00     585    70.0
 270   11:00   75.7    16    7.6    61     13.5   861.2    0.00     590    70.4
 270   11:10   75.6    16    7.8    79     13.8   861.0    0.00     594    70.7
 270   11:20   76.3    15    6.3    30     11.8   861.0    0.00     596    70.7
 270   11:30   76.7    15    8.2    36     11.9   860.6    0.00     599    70.8
 270   11:40   77.2    14    4.6    34     11.2   860.9    0.00     598    71.0
 270   11:50   77.8    14    5.9     9     10.9   860.4    0.00     596    71.1
 270   12:00   77.7    14    6.1    27     11.3   860.1    0.00     596    71.3
 270   12:10   77.7    14    6.7    59     13.1   860.2    0.00     592    71.6
 270   12:20   79.2    13    5.8    61     16.2   860.4    0.00     587    71.7
 270   12:30   79.0    13    5.1    78     12.8   860.1    0.00     581    71.9
 270   12:40   79.6    13    6.3     4     12.2   858.8    0.00     573    72.0
 270   12:50   79.5    13    6.8   336     14.1   859.4    0.00     565    72.2
 270   13:00   79.5    13    7.0    17     13.2   859.8    0.00     556    72.5
 270   13:10   79.6    13    7.5    11     11.9   860.0    0.00     545    72.6
 270   13:20   79.8    13    3.9   358     10.3   860.1    0.00     534    72.7
 270   13:30   80.0    13    5.1     6      9.8   860.1    0.00     522    72.8
 270   13:40   79.7    13    4.2   354      8.1   859.8    0.00     508    72.9
 270   13:50   81.2    12    5.7    17     12.0   859.7    0.00     493    73.1
 270   14:00   80.9    12    5.7    22      9.9   859.6    0.00     476    73.3
 270   14:10   80.9    12    4.0    33     10.2   859.5    0.00     459    73.4
 270   14:20   80.5    12    5.9    22     10.2   859.4    0.00     442    73.6
 270   14:30   81.1    12    5.6    17      9.0   859.3    0.00     422    73.7
 270   14:40   80.9    12    2.8   311      6.0   859.2    0.00     403    73.7
 270   14:50   81.1    12    6.5   135     10.6   859.2    0.00     382    73.8
 270   15:00   80.6    12    5.8   117     11.8   859.0    0.00     361    73.9
 270   15:10   80.6    12    5.7   128      9.1   858.8    0.00     339    73.9
 270   15:20   80.5    12    6.0   164     14.3   858.7    0.00     317    74.0
 270   15:30   80.7    12    6.2   163     10.7   858.6    0.00     293    74.0
 270   15:40   80.6    12    4.5   164     10.0   858.5    0.00     270    74.0
 270   15:50   80.5    12    6.2   147     10.1   858.4    0.00     245    73.9
 270   16:00   80.3    12    6.0   152      9.4   858.2    0.00     221    74.0
 270   16:10   80.2    12    5.3   171     11.5   858.1    0.00     197    73.9
 270   16:20   80.1    12    5.0   183      9.7   858.0    0.00     173    73.9
 270   16:30   80.5    12    4.4   216      7.0   857.9    0.00     149    73.9
 270   16:40   80.3    12    5.5   184     11.8   857.9    0.00     125    73.9
 270   16:50   79.6    12    8.2   165     10.9   857.8    0.00     103    73.8
 270   17:00   79.4    12    8.0   168     11.8   857.8    0.00      75    73.6
 270   17:10   79.1    12    7.9   168     10.5   857.6    0.00      47    73.6
 270   17:20   78.4    12    7.0   179     10.2   857.4    0.00      27    73.4
 270   17:30   77.3    13    5.3   167      6.6   857.3    0.00      10    73.1
 270   17:40   76.2    13    5.1   168      6.5   857.7    0.00       5    72.8
 270   17:50   73.5    14    4.2   134      5.4   857.3    0.00       3    72.3
 270   18:00   72.8    14    4.4   123      5.8   857.0    0.00       1    71.9
 270   18:10   71.5    14    5.9   140      6.9   856.9    0.00       0    71.6
 270   18:20   70.4    15    6.0   162      7.4   856.7    0.00       0    71.3
 270   18:30   68.8    16    6.6   158      8.0   856.6    0.00       0    70.8
 270   18:40   67.3    16    7.0   158      8.6   856.7    0.00       0    70.6
 270   18:50   66.8    16    7.8   156      8.8   856.5    0.00       0    70.2
 270   19:00   64.9    18    6.5   154      8.0   856.2    0.00       0    70.0
 270   19:10   64.9    18    8.3   155      9.3   856.2    0.00       0    69.5
 270   19:20   65.5    18    8.7   153      9.6   855.9    0.00       0    69.3
 270   19:30   65.5    18    9.7   146     10.3   855.9    0.00       0    69.1
 270   19:40   64.3    19    4.3   309      9.6   856.1    0.00       0    68.9
 270   19:50   61.8    20    3.6   316      5.4   856.2    0.00       0    68.7
 270   20:00   60.9    21    3.1   286      4.7   856.1    0.00       0    68.5
 270   20:10   61.8    20    3.1   250      4.7   856.0    0.00       0    68.4
 270   20:20   61.7    20    4.2   239      5.9   856.0    0.00       0    68.0
 270   20:30   61.2    20    2.6   221      5.2   856.0    0.00       0    67.8
 270   20:40   59.0    21    3.2   177      4.9   855.8    0.00       0    67.5
 270   20:50   57.4    22    6.2   156      7.5   855.7    0.00       0    67.1
 270   21:00   58.0    22    6.7   162      8.1   855.6    0.00       0    66.6
 270   21:10   57.8    23    5.4   160      7.7   855.6    0.00       0    66.5
 270   21:20   58.6    23    6.8   167      9.1   855.5    0.00       0    66.3
 270   21:30   58.7    23    5.5   160      7.5   855.5    0.00       0    66.1
 270   21:40   57.5    24    4.4   189      7.2   855.6    0.00       0    65.8
 270   21:50   54.4    28    4.1   320      5.2   855.6    0.00       0    65.8
 270   22:00   52.5    30    3.5   304      5.3   855.6    0.00       0    65.4
 270   22:10   52.3    30    1.9   258      3.6   855.6    0.00       0    65.3
 270   22:20   52.2    30    2.2   255      3.9   855.6    0.00       0    65.0
 270   22:30   53.0    29    3.5   238      5.8   855.7    0.00       0    64.8
 270   22:40   53.4    27    4.0   211      4.9   855.6    0.00       0    64.6
 270   22:50   52.4    26    3.4   198      4.3   855.6    0.00       0    64.3
 270   23:00   52.9    26    2.6   185      3.3   855.5    0.00       0    64.0
 270   23:10   51.9    26    2.8   168      3.4   855.5    0.00       0    63.8
 270   23:20   50.3    27    3.7   169      4.5   855.4    0.00       0    63.5
 270   23:30   50.4    28    4.0   176      5.3   855.4    0.00       0    63.4
 270   23:40   50.3    27    4.0   173      5.0   855.3    0.00       0    63.1
 270   23:50   50.0    28    3.0   183      4.5   855.3    0.00       0    62.9
 271    0:00   49.5    28    3.5   225      7.1   855.3    0.00       0    62.8
 271    0:10   46.9    29    5.3    40      7.4   855.3    0.00       0    62.2
 271    0:20   46.0    30    5.0    50      5.8   855.2    0.00       0    61.8
 271    0:30   46.9    30    3.6    50      4.5   855.2    0.00       0    61.6
 271    0:40   48.6    30    2.7    60      3.1   855.0    0.00       0    61.4
 271    0:50   49.9    29    1.5    61      2.4   855.0    0.00       0    61.4
 271    1:00   48.3    30    1.8   131      2.7   854.9    0.00       0    61.3
 271    1:10   47.1    30    2.7   147      4.3   854.8    0.00       0    61.2
 271    1:20   46.4    30    3.0   159      3.9   854.7    0.00       0    61.1
 271    1:30   45.8    30    4.4   181      5.1   854.6    0.00       0    60.9
 271    1:40   46.0    30    3.9   202      4.6   854.5    0.00       0    60.7
 271    1:50   45.6    31    3.5   190      4.7   854.6    0.00       0    60.5
 271    2:00   46.3    31    1.5   201      2.8   854.7    0.00       0    60.3
 271    2:10   45.7    31    1.9   206      2.9   854.7    0.00       0    60.2
 271    2:20   45.2    31    2.2   267      3.5   854.5    0.00       0    60.0
 271    2:30   44.8    31    0.8   206      1.7   854.1    0.00       0    59.8
 271    2:40   44.0    31    0.5   163      1.7   853.8    0.00       0    59.4
 271    2:50   44.6    32    1.3   130      2.1   854.1    0.00       0    59.1
 271    3:00   45.7    31    0.4   115      1.4   854.0    0.00       0    59.0
 271    3:10   45.6    33    1.4   120      4.2   854.1    0.00       0    58.9
 271    3:20   45.6    34    1.5   108      3.1   854.2    0.00       0    58.7
 271    3:30   45.5    34    1.4    18      2.3   854.2    0.00       0    58.6
 271    3:40   44.5    34    2.1     8      2.9   854.2    0.00       0    58.6
 271    3:50   42.7    35    1.7     6      2.6   854.1    0.00       0    58.2
 271    4:00   42.7    37    0.9    73      1.5   854.1    0.00       0    57.9
 271    4:10   43.1    37    0.9   118      2.6   854.0    0.00       0    57.7
 271    4:20   43.2    36    3.1   129      3.9   854.1    0.00       0    57.6
 271    4:30   44.1    35    3.4   157      4.7   854.0    0.00       0    57.5
 271    4:40   43.9    34    2.6   178      4.3   854.1    0.00       0    57.6
 271    4:50   43.3    35    2.5   230      3.7   854.3    0.00       0    57.6
 271    5:00   42.6    34    0.6   214      1.4   854.2    0.00       0    57.4
 271    5:10   42.5    35    1.4   292      2.3   854.1    0.00       0    57.3
 271    5:20   42.7    35    1.0   335      2.3   854.2    0.00       0    57.2

Return to St. George, Utah graphs page.


Western Regional Climate Center,wrcc@dri.edu